Main page
METAR-TAF:

METAR-TAF

Airports :

Brewster Field

Holdrege, Nebraska, United States

latitude: 40-27N, longitude: 099-20W, elevation: 2309 ft

Current weather observation

The report was made 17 minutes ago, at 19:55 UTC
Wind 21 mph from the East/Northeast with gusts up to 28 mph
Temperature 91°F
Humidity 46%
Pressure 29.92 in. Hg
Visibility: 10 miles
Clear sky

METAR: KHDE 131955Z AUTO 06018G24KT 10SM CLR 33/20 A2992 RMK AO2 T03270199

Time: 15:12 (20:12 UTC)


TAF: missing

Weather observations and forecasts of more than 4000 airports (METAR and TAF reports).

The available stations are represented by yellow and red dots on the map.

Hover mouse over dot to see the name of the station.

Then click to see weather observations and forecasts.

To change the map : click on the green buttons with a black cross to zoom in, on the green button with a dash to zoom out, or on the green arrows for adjacent maps.


METAR-TAF: